Elkins-Randolph Co-Jennings Randolph Field
KEKN : now visible

Airfield :











YOU CAN JOIN US ON...

 
LOGIN :

Register | Disclaimer

   EN    FR    IT 

 









Legend :    VFR   Marginal VFR   IFR   Intensive IFR   Very Intensive IFR
Visi :
Ceiling :
>= 8 km
>= 3000ft
5 to 8 km
1000 to 3000 ft
1500m to 5 km
500 to 1000 ft
800 to 1500m
200 to 500 ft
< 800m
< 200 ft
Symbols :   Thunderstorms  Fog  Heavy snow  Heavy precipitations  Wind > 20 kt






- Airport Elevation : 1987 ft


KEKN - Elkins-Randolph Co-Jennings Randolph Field

CURRENT METAR :
  • 142141Z AUTO 29005KT 3SM -SN BR BKN015 OVC021 02/M01 A2958 RMK AO2 UPB13E19SNE13B19 P0001 T00171006

EXPIRED METARs :
  • 142136Z AUTO 30005KT 2 1/2SM -SN BR BKN013 OVC019 02/M01 A2958 RMK AO2 UPB13E19SNE13B19 P0000 T00171006
  • 142051Z AUTO 29012G19KT 5SM -SN BKN014 OVC023 02/M01 A2955 RMK AO2 RAE48SNB48 SLP020 P0002 60004 T00221006 53034
  • 141951Z AUTO 25006KT 9SM -RA OVC014 04/01 A2950 RMK AO2 SLP003 P0001 T00390006
  • 141851Z AUTO VRB06G17KT 6SM -RA OVC014 04/01 A2947 RMK AO2 SLP994 P0001 T00390011

TAF KEKN
Valid from the 14 at 21:00 until the 15 at 18:00 UTC


142057Z 1421/1518 28010G16KT 3SM -RASN OVC012
FM142300 29011G17KT 3SM -RASN OVC013
FM151100 26011G18KT P6SM OVC015



MET'MAP, your aeronautical weather chart ! - Copyright ORBIFLY December 2007 - Disclaimer

ORBIFLY MET'MAP TEAM :

Programming & Development : Alexandra Zaïnal
Concept & original design : Baudouin d'Aumeries
Assistance for programming : Marc-Olivier Méhu
Technical & hardware support : Manuel Goepfert

Contact : metmap@orbifly.com




SOURCES & CREDITS :

   NOAA       Earth
Advisory